createdAt,value
2017-09-28T00:00:32.249Z,0
2017-09-28T00:03:06.443Z,0
2017-09-28T00:03:46.890Z,0
2017-09-28T00:04:27.333Z,0
2017-09-28T00:05:07.727Z,0
2017-09-28T00:05:48.215Z,0
2017-09-28T00:06:28.685Z,0
2017-09-28T00:07:09.128Z,0
2017-09-28T00:07:49.649Z,0
2017-09-28T00:08:30.072Z,0
2017-09-28T00:09:10.449Z,0
2017-09-28T00:09:50.921Z,0
2017-09-28T00:10:31.369Z,0
2017-09-28T00:11:11.830Z,0
2017-09-28T00:11:52.276Z,0
2017-09-28T00:12:32.687Z,0
2017-09-28T00:13:13.131Z,0
2017-09-28T00:13:53.607Z,0
2017-09-28T00:14:34.057Z,0
2017-09-28T00:15:14.547Z,0
2017-09-28T00:15:54.977Z,0
2017-09-28T00:16:35.462Z,0
2017-09-28T00:17:15.908Z,0
2017-09-28T00:17:56.342Z,0
2017-09-28T00:18:36.796Z,0
2017-09-28T00:19:17.256Z,0
2017-09-28T00:19:57.766Z,0
2017-09-28T00:20:38.206Z,0
2017-09-28T00:21:18.608Z,0
2017-09-28T00:21:59.091Z,0
2017-09-28T00:22:39.529Z,0
2017-09-28T00:23:20.004Z,0
2017-09-28T00:24:00.466Z,0
2017-09-28T00:24:40.886Z,0
2017-09-28T00:25:21.351Z,0
2017-09-28T00:26:01.829Z,0
2017-09-28T00:26:42.294Z,0
2017-09-28T00:27:22.744Z,0
2017-09-28T00:28:03.225Z,0
2017-09-28T00:28:43.631Z,0
2017-09-28T00:29:24.110Z,0
2017-09-28T00:30:04.533Z,0
2017-09-28T00:30:44.997Z,0
2017-09-28T00:31:25.463Z,0
2017-09-28T00:32:05.863Z,0
2017-09-28T00:32:46.359Z,0
2017-09-28T00:33:26.765Z,0
2017-09-28T00:34:07.233Z,0
2017-09-28T00:34:47.751Z,0
2017-09-28T00:35:28.166Z,0
2017-09-28T00:36:08.602Z,0
2017-09-28T00:36:49.071Z,0
2017-09-28T00:37:29.532Z,0
2017-09-28T00:38:10.061Z,0
2017-09-28T00:38:50.474Z,0
2017-09-28T00:39:30.869Z,0
2017-09-28T00:40:11.337Z,0
2017-09-28T00:40:51.754Z,0
2017-09-28T00:41:32.220Z,0
2017-09-28T00:42:12.690Z,0
2017-09-28T00:42:53.150Z,0
2017-09-28T00:43:33.648Z,0
2017-09-28T00:44:14.124Z,0
2017-09-28T00:44:54.509Z,0
2017-09-28T00:45:35.009Z,0
2017-09-28T00:46:15.475Z,0
2017-09-28T00:46:55.908Z,0
2017-09-28T00:47:36.341Z,0
2017-09-28T00:48:16.850Z,0
2017-09-28T00:48:57.434Z,0
2017-09-28T00:49:37.849Z,0
2017-09-28T00:50:18.257Z,0
2017-09-28T00:50:58.716Z,0
2017-09-28T00:51:39.142Z,0
2017-09-28T00:52:19.602Z,0
2017-09-28T00:53:00.062Z,0
2017-09-28T00:53:40.466Z,0
2017-09-28T00:54:20.964Z,0
2017-09-28T00:55:01.467Z,0
2017-09-28T00:55:41.891Z,0
2017-09-28T00:56:22.333Z,0
2017-09-28T00:57:02.788Z,0
2017-09-28T00:57:43.253Z,0
2017-09-28T00:58:23.698Z,0
2017-09-28T00:59:04.129Z,0
2017-09-28T00:59:44.577Z,0
2017-09-28T01:00:25.114Z,0
2017-09-28T01:01:05.515Z,0
2017-09-28T01:01:45.991Z,0
2017-09-28T01:02:26.437Z,0
2017-09-28T01:03:06.850Z,0
2017-09-28T01:03:47.260Z,0
2017-09-28T01:04:27.733Z,0
2017-09-28T01:05:08.198Z,0
2017-09-28T01:05:48.690Z,0
2017-09-28T01:06:29.166Z,0
2017-09-28T01:07:09.568Z,0
2017-09-28T01:07:50.111Z,0
2017-09-28T01:08:30.551Z,0
2017-09-28T01:09:11.033Z,0
2017-09-28T01:09:51.539Z,0
2017-09-28T01:10:32.011Z,0
2017-09-28T01:11:12.530Z,0
2017-09-28T01:11:53.014Z,0
2017-09-28T01:12:33.473Z,0
2017-09-28T01:13:13.930Z,0
2017-09-28T01:13:54.398Z,0
2017-09-28T01:14:34.872Z,0
2017-09-28T01:15:15.338Z,0
2017-09-28T01:15:55.818Z,0
2017-09-28T01:16:36.300Z,0
2017-09-28T01:17:16.817Z,0
2017-09-28T01:17:57.275Z,0
2017-09-28T01:18:37.739Z,0
2017-09-28T01:19:18.225Z,0
2017-09-28T01:19:58.716Z,0
2017-09-28T01:20:39.085Z,0
2017-09-28T01:21:19.531Z,0
2017-09-28T01:22:00.045Z,0
2017-09-28T01:22:40.414Z,0
2017-09-28T01:23:20.904Z,0
2017-09-28T01:24:01.403Z,0
2017-09-28T01:24:42.076Z,0
2017-09-28T01:25:22.488Z,0
2017-09-28T01:26:03.059Z,0
2017-09-28T01:26:43.506Z,0
2017-09-28T01:27:23.926Z,0
2017-09-28T01:28:04.357Z,0
2017-09-28T01:28:44.748Z,0
2017-09-28T01:29:25.245Z,0
2017-09-28T01:30:05.627Z,0
2017-09-28T01:30:46.112Z,0
2017-09-28T01:31:26.611Z,0
2017-09-28T01:32:07.066Z,0
2017-09-28T01:32:47.579Z,0
2017-09-28T01:33:28.064Z,0
2017-09-28T01:34:08.484Z,0
2017-09-28T01:34:48.909Z,0
2017-09-28T01:35:29.389Z,0
2017-09-28T01:36:09.789Z,0
2017-09-28T01:36:50.288Z,0
2017-09-28T01:37:30.668Z,0
2017-09-28T01:38:11.137Z,0
2017-09-28T01:38:51.606Z,0
2017-09-28T01:39:32.064Z,0
2017-09-28T01:40:12.467Z,0
2017-09-28T01:40:52.945Z,0
2017-09-28T01:41:33.399Z,0
2017-09-28T01:42:13.804Z,0
2017-09-28T01:42:54.258Z,0
2017-09-28T01:43:34.746Z,0
2017-09-28T01:44:15.227Z,0
2017-09-28T01:44:55.693Z,0
2017-09-28T01:45:36.079Z,0
2017-09-28T01:46:16.581Z,0
2017-09-28T01:46:57.035Z,0
2017-09-28T01:47:37.562Z,0
2017-09-28T01:48:17.954Z,0
2017-09-28T01:48:58.494Z,0
2017-09-28T01:49:38.973Z,0
2017-09-28T01:50:19.479Z,0
2017-09-28T01:50:59.900Z,0
2017-09-28T01:51:40.405Z,0
2017-09-28T01:52:20.836Z,0
2017-09-28T01:53:01.367Z,0
2017-09-28T01:53:41.793Z,0
2017-09-28T01:54:22.201Z,0
2017-09-28T01:55:02.643Z,0
2017-09-28T01:55:43.044Z,0
2017-09-28T01:56:23.511Z,0
2017-09-28T01:57:03.961Z,0
2017-09-28T01:57:44.428Z,0
2017-09-28T01:58:24.888Z,0
2017-09-28T01:59:05.294Z,0
2017-09-28T01:59:45.780Z,0
2017-09-28T02:00:26.207Z,0
2017-09-28T02:01:06.681Z,0
2017-09-28T02:01:47.083Z,0
2017-09-28T02:02:27.569Z,0
2017-09-28T02:03:07.978Z,0
2017-09-28T02:03:48.454Z,0
2017-09-28T02:04:28.959Z,0
2017-09-28T02:05:09.388Z,0
2017-09-28T02:05:49.824Z,0
2017-09-28T02:06:30.263Z,0
2017-09-28T02:07:10.709Z,0
2017-09-28T02:07:51.175Z,0
2017-09-28T02:08:31.626Z,0
2017-09-28T02:09:12.032Z,0
2017-09-28T02:09:52.507Z,0
2017-09-28T02:10:32.973Z,0
2017-09-28T02:11:13.383Z,0
2017-09-28T02:11:53.866Z,0
2017-09-28T02:12:34.353Z,0
2017-09-28T02:13:14.782Z,0
2017-09-28T02:13:55.223Z,0
2017-09-28T02:14:35.662Z,0
2017-09-28T02:15:16.132Z,0
2017-09-28T02:15:56.546Z,0
2017-09-28T02:16:37.030Z,0
2017-09-28T02:17:17.486Z,0
2017-09-28T02:17:57.909Z,0
2017-09-28T02:18:38.342Z,0
2017-09-28T02:19:18.825Z,0
2017-09-28T02:19:59.305Z,0
2017-09-28T02:20:39.702Z,0
2017-09-28T02:21:20.196Z,0
2017-09-28T02:22:00.587Z,0
2017-09-28T02:22:41.088Z,0
2017-09-28T02:23:21.535Z,0
2017-09-28T02:24:01.922Z,0
2017-09-28T02:24:42.385Z,0
2017-09-28T02:25:22.839Z,0
2017-09-28T02:26:03.261Z,0
2017-09-28T02:26:43.669Z,0
2017-09-28T02:27:24.061Z,0
2017-09-28T02:28:04.552Z,0
2017-09-28T02:28:45.059Z,0
2017-09-28T02:29:25.622Z,0
2017-09-28T02:30:05.908Z,0
2017-09-28T02:30:46.388Z,0
2017-09-28T02:31:26.770Z,0
2017-09-28T02:32:07.247Z,0
2017-09-28T02:32:47.718Z,0
2017-09-28T02:33:28.146Z,0
2017-09-28T02:34:08.616Z,0
2017-09-28T02:34:49.059Z,0
2017-09-28T02:35:29.527Z,0
2017-09-28T02:36:09.976Z,0
2017-09-28T02:36:50.461Z,0
2017-09-28T02:37:30.952Z,0
2017-09-28T02:38:11.400Z,0
2017-09-28T02:38:51.885Z,0
2017-09-28T02:39:32.320Z,0
2017-09-28T02:40:12.768Z,0
2017-09-28T02:40:53.197Z,0
2017-09-28T02:41:33.663Z,0
2017-09-28T02:42:14.095Z,0
2017-09-28T02:42:54.546Z,0
2017-09-28T02:43:35.007Z,0
2017-09-28T02:44:15.451Z,0
2017-09-28T02:44:55.836Z,0
2017-09-28T02:45:36.287Z,0
2017-09-28T02:46:16.719Z,0
2017-09-28T02:46:57.252Z,0
2017-09-28T02:47:37.592Z,0
2017-09-28T02:48:18.059Z,0
2017-09-28T02:48:58.482Z,0
2017-09-28T02:49:38.959Z,0
2017-09-28T02:50:19.386Z,0
2017-09-28T02:50:59.847Z,0
2017-09-28T02:51:40.252Z,0
2017-09-28T02:52:20.909Z,0
2017-09-28T02:53:01.329Z,0
2017-09-28T02:53:41.771Z,0
2017-09-28T02:54:22.220Z,0
2017-09-28T02:55:02.725Z,0
2017-09-28T02:55:43.178Z,0
2017-09-28T02:56:23.620Z,0
2017-09-28T02:57:04.118Z,0
2017-09-28T02:57:44.487Z,0
2017-09-28T02:58:24.904Z,0
2017-09-28T02:59:05.386Z,0
2017-09-28T02:59:45.832Z,0
2017-09-28T03:00:26.300Z,0
2017-09-28T03:01:06.735Z,0
2017-09-28T03:01:47.200Z,0
2017-09-28T03:02:27.686Z,0
2017-09-28T03:03:08.115Z,0
2017-09-28T03:03:48.635Z,0
2017-09-28T03:04:29.016Z,0
2017-09-28T03:05:09.509Z,0
2017-09-28T03:05:49.902Z,0
2017-09-28T03:06:30.359Z,0
2017-09-28T03:07:10.786Z,0
2017-09-28T03:07:51.202Z,0
2017-09-28T03:08:31.691Z,0
2017-09-28T03:09:12.071Z,0
2017-09-28T03:09:52.515Z,0
2017-09-28T03:10:32.984Z,0
2017-09-28T03:11:13.406Z,0
2017-09-28T03:11:53.843Z,0
2017-09-28T03:12:34.326Z,0
2017-09-28T03:13:14.762Z,0
2017-09-28T03:13:55.196Z,0
2017-09-28T03:14:35.685Z,0
2017-09-28T03:15:16.204Z,0
2017-09-28T03:17:54.427Z,0
2017-09-28T03:18:34.889Z,0
2017-09-28T03:19:15.350Z,0
2017-09-28T03:19:55.833Z,0
2017-09-28T03:20:36.345Z,0
2017-09-28T03:21:16.829Z,0
2017-09-28T03:21:57.336Z,0
2017-09-28T03:22:37.790Z,0
2017-09-28T03:23:18.263Z,0
2017-09-28T03:23:58.752Z,0
2017-09-28T03:24:39.257Z,0
2017-09-28T03:25:19.730Z,0
2017-09-28T03:26:00.220Z,0
2017-09-28T03:26:40.703Z,0
2017-09-28T03:27:21.178Z,0
2017-09-28T03:28:01.647Z,0
2017-09-28T03:28:42.172Z,0
2017-09-28T03:29:22.589Z,0
2017-09-28T03:30:03.042Z,0
2017-09-28T03:30:43.568Z,0
2017-09-28T03:31:24.019Z,0
2017-09-28T03:32:05.139Z,0
2017-09-28T03:32:45.350Z,0
2017-09-28T03:33:25.803Z,0
2017-09-28T03:34:06.245Z,0
2017-09-28T03:34:46.703Z,0
2017-09-28T03:35:27.159Z,0
2017-09-28T03:36:07.621Z,0
2017-09-28T03:36:48.082Z,0
2017-09-28T03:37:29.458Z,0
2017-09-28T03:38:09.942Z,0
2017-09-28T03:38:50.354Z,0
2017-09-28T03:39:30.794Z,0
2017-09-28T03:40:11.267Z,0
2017-09-28T03:40:51.744Z,0
2017-09-28T03:41:32.304Z,0
2017-09-28T03:42:12.686Z,0
2017-09-28T03:42:53.147Z,0
2017-09-28T03:43:33.598Z,0
2017-09-28T03:44:14.069Z,0
2017-09-28T03:44:54.541Z,0
2017-09-28T03:45:34.989Z,0
2017-09-28T03:46:15.431Z,0
2017-09-28T03:46:55.902Z,0
2017-09-28T03:47:36.474Z,0
2017-09-28T03:49:49.225Z,0
2017-09-28T03:50:29.698Z,0
2017-09-28T03:51:10.192Z,0
2017-09-28T03:51:50.673Z,0
2017-09-28T03:52:31.131Z,0
2017-09-28T03:53:11.647Z,0
2017-09-28T03:53:52.112Z,0
2017-09-28T03:54:32.604Z,0
2017-09-28T03:55:13.081Z,0
2017-09-28T03:55:53.569Z,0
2017-09-28T03:56:34.080Z,0
2017-09-28T03:57:14.546Z,0
2017-09-28T03:57:55.059Z,0
2017-09-28T03:58:35.589Z,0
2017-09-28T03:59:15.997Z,0
2017-09-28T03:59:57.271Z,0
2017-09-28T04:00:37.766Z,0
2017-09-28T04:01:18.206Z,0
2017-09-28T04:01:58.683Z,0
2017-09-28T04:02:39.134Z,0
2017-09-28T04:03:19.569Z,0
2017-09-28T04:03:59.996Z,0
2017-09-28T04:04:40.459Z,0
2017-09-28T04:05:20.972Z,0
2017-09-28T04:06:01.407Z,0
2017-09-28T04:06:41.852Z,0
2017-09-28T04:07:22.891Z,0
2017-09-28T04:08:03.346Z,0
2017-09-28T04:08:43.801Z,0
2017-09-28T04:11:11.769Z,0
2017-09-28T04:11:52.266Z,0
2017-09-28T04:12:32.761Z,0
2017-09-28T04:13:13.233Z,0
2017-09-28T04:13:53.750Z,0
2017-09-28T04:14:34.197Z,0
2017-09-28T04:15:14.640Z,0
2017-09-28T04:15:55.109Z,0
2017-09-28T04:18:23.152Z,0
2017-09-28T04:19:03.635Z,0
2017-09-28T04:19:44.123Z,0
2017-09-28T04:20:24.639Z,0
2017-09-28T04:21:05.112Z,0
2017-09-28T04:21:45.594Z,0
2017-09-28T04:22:26.079Z,0
2017-09-28T04:23:06.598Z,0
2017-09-28T04:23:47.226Z,0
2017-09-28T04:24:27.533Z,0
2017-09-28T04:25:08.008Z,0
2017-09-28T04:25:48.476Z,0
2017-09-28T04:26:28.983Z,0
2017-09-28T04:28:46.778Z,0
2017-09-28T04:29:27.307Z,0
2017-09-28T04:30:07.773Z,0
2017-09-28T04:30:48.259Z,0
2017-09-28T04:31:28.721Z,0
2017-09-28T04:32:09.175Z,0
2017-09-28T04:32:49.627Z,0
2017-09-28T04:33:30.061Z,0
2017-09-28T04:36:08.256Z,0
2017-09-28T04:36:48.828Z,0
2017-09-28T04:37:29.393Z,0
2017-09-28T04:38:09.895Z,0
2017-09-28T04:40:37.842Z,0
2017-09-28T04:41:18.360Z,0
2017-09-28T04:41:58.899Z,0
2017-09-28T04:42:39.568Z,0
2017-09-28T04:43:20.032Z,0
2017-09-28T04:44:00.565Z,0
2017-09-28T04:44:41.013Z,0
2017-09-28T04:45:21.456Z,0
2017-09-28T04:46:01.956Z,0
2017-09-28T04:46:42.438Z,0
2017-09-28T04:47:22.869Z,0
2017-09-28T04:48:03.311Z,0
2017-09-28T04:48:43.808Z,0
2017-09-28T04:49:24.190Z,0
2017-09-28T04:50:04.633Z,0
2017-09-28T04:50:45.120Z,0
2017-09-28T04:51:25.602Z,0
2017-09-28T04:52:06.053Z,0
2017-09-28T04:52:46.542Z,0
2017-09-28T04:53:26.953Z,0
2017-09-28T04:54:07.428Z,0
2017-09-28T04:54:47.866Z,0
2017-09-28T04:55:28.318Z,0
2017-09-28T04:56:08.807Z,0
2017-09-28T04:56:49.245Z,0
2017-09-28T04:57:29.776Z,0
2017-09-28T04:59:57.722Z,0
2017-09-28T05:00:38.185Z,0
2017-09-28T05:01:18.699Z,0
2017-09-28T05:01:59.197Z,0
2017-09-28T05:02:39.677Z,0
2017-09-28T05:03:20.259Z,0
2017-09-28T05:04:00.613Z,0
2017-09-28T05:08:26.265Z,0
2017-09-28T05:09:06.751Z,0
2017-09-28T05:09:47.244Z,0
2017-09-28T05:12:15.225Z,0
2017-09-28T05:12:55.711Z,0
2017-09-28T05:13:36.192Z,0
2017-09-28T05:14:16.608Z,0
2017-09-28T05:14:57.989Z,0
2017-09-28T05:15:38.439Z,0
2017-09-28T05:16:18.910Z,0
2017-09-28T05:16:59.324Z,0
2017-09-28T05:19:37.397Z,0
2017-09-28T05:20:17.972Z,5
2017-09-28T05:20:58.377Z,5
2017-09-28T05:21:38.917Z,5
2017-09-28T05:22:19.347Z,5
2017-09-28T05:22:59.809Z,5
2017-09-28T05:23:40.257Z,5
2017-09-28T05:24:20.722Z,5
2017-09-28T05:25:01.191Z,5
2017-09-28T05:25:41.667Z,5
2017-09-28T05:26:22.127Z,5
2017-09-28T05:27:02.636Z,5
2017-09-28T05:27:43.097Z,5
2017-09-28T05:28:23.523Z,5
2017-09-28T05:29:03.960Z,10
2017-09-28T05:29:44.409Z,10
2017-09-28T05:30:24.867Z,10
2017-09-28T05:31:05.301Z,10
2017-09-28T05:31:45.753Z,10
2017-09-28T05:32:26.218Z,10
2017-09-28T05:34:38.960Z,15
2017-09-28T05:35:19.411Z,15
2017-09-28T05:35:59.911Z,15
2017-09-28T05:36:40.381Z,15
2017-09-28T05:37:20.897Z,15
2017-09-28T05:38:01.352Z,20
2017-09-28T05:38:41.819Z,20
2017-09-28T05:41:14.827Z,20
2017-09-28T05:41:55.376Z,25
2017-09-28T05:42:35.937Z,25
2017-09-28T05:43:16.428Z,25
2017-09-28T05:43:56.909Z,25
2017-09-28T05:44:37.386Z,30
2017-09-28T05:45:17.944Z,30
2017-09-28T05:45:58.503Z,30
2017-09-28T05:46:39.026Z,30
2017-09-28T05:47:19.445Z,35
2017-09-28T05:47:59.994Z,35
2017-09-28T05:48:40.532Z,35
2017-09-28T05:49:20.961Z,35
2017-09-28T05:50:01.529Z,40
2017-09-28T05:50:41.943Z,40
2017-09-28T05:51:22.403Z,40
2017-09-28T05:52:02.939Z,40
2017-09-28T05:52:43.398Z,40
2017-09-28T05:53:23.895Z,45
2017-09-28T05:54:04.337Z,45
2017-09-28T05:54:44.754Z,45
2017-09-28T05:55:25.254Z,45
2017-09-28T05:56:05.752Z,45
2017-09-28T05:58:19.349Z,50
2017-09-28T05:58:59.813Z,50
2017-09-28T05:59:40.320Z,55
2017-09-28T06:00:20.726Z,55
2017-09-28T06:01:01.247Z,55
2017-09-28T06:01:41.694Z,55
2017-09-28T06:02:22.234Z,60
2017-09-28T06:03:02.687Z,60
2017-09-28T06:03:43.137Z,60
2017-09-28T06:04:23.616Z,60
2017-09-28T06:05:04.070Z,65
2017-09-28T06:05:44.517Z,65
2017-09-28T06:06:24.954Z,65
2017-09-28T06:07:05.491Z,65
2017-09-28T06:07:45.922Z,70
2017-09-28T06:08:26.392Z,70
2017-09-28T06:09:06.899Z,70
2017-09-28T06:09:47.334Z,75
2017-09-28T06:10:27.832Z,75
2017-09-28T06:11:08.265Z,75
2017-09-28T06:11:48.754Z,75
2017-09-28T06:12:29.145Z,80
2017-09-28T06:13:09.710Z,80
2017-09-28T06:13:50.076Z,80
2017-09-28T06:14:30.552Z,80
2017-09-28T06:15:10.984Z,80
2017-09-28T06:15:51.495Z,80
2017-09-28T06:18:29.668Z,85
2017-09-28T06:19:10.175Z,85
2017-09-28T06:19:50.652Z,85
2017-09-28T06:20:31.153Z,90
2017-09-28T06:21:11.655Z,90
2017-09-28T06:21:52.111Z,90
2017-09-28T06:22:32.579Z,95
2017-09-28T06:23:13.978Z,95
2017-09-28T06:23:54.459Z,95
2017-09-28T06:24:34.943Z,100
2017-09-28T06:25:15.424Z,100
2017-09-28T06:25:55.909Z,105
2017-09-28T06:26:36.363Z,105
2017-09-28T06:29:14.410Z,115
2017-09-28T06:29:54.972Z,115
2017-09-28T06:30:35.367Z,115
2017-09-28T06:31:15.830Z,120
2017-09-28T06:31:56.299Z,120
2017-09-28T06:32:36.774Z,120
2017-09-28T06:35:10.182Z,130
2017-09-28T06:35:50.558Z,130
2017-09-28T06:36:31.074Z,135
2017-09-28T06:37:11.518Z,135
2017-09-28T06:37:51.982Z,135
2017-09-28T06:38:32.418Z,140
2017-09-28T06:39:12.912Z,140
2017-09-28T06:39:53.365Z,145
2017-09-28T06:40:33.810Z,145
2017-09-28T06:42:51.620Z,150
2017-09-28T06:43:32.054Z,150
2017-09-28T06:46:01.157Z,155
2017-09-28T06:46:41.594Z,160
2017-09-28T06:47:22.286Z,160
2017-09-28T06:48:02.523Z,165
2017-09-28T06:48:43.015Z,165
2017-09-28T06:49:23.581Z,165
2017-09-28T06:50:03.981Z,165
2017-09-28T06:50:44.488Z,165
2017-09-28T06:51:25.044Z,170
2017-09-28T06:52:05.618Z,170
2017-09-28T06:52:46.195Z,175
2017-09-28T06:53:26.678Z,175
2017-09-28T06:54:07.183Z,180
2017-09-28T06:54:47.661Z,180
2017-09-28T06:55:28.183Z,180
2017-09-28T06:56:08.660Z,185
2017-09-28T06:56:49.116Z,185
2017-09-28T06:57:29.579Z,185
2017-09-28T06:58:10.068Z,190
2017-09-28T06:58:50.597Z,195
2017-09-28T06:59:31.173Z,210
2017-09-28T07:00:11.710Z,210
2017-09-28T07:00:52.202Z,210
2017-09-28T07:01:33.793Z,210
2017-09-28T07:02:15.147Z,205
2017-09-28T07:02:56.452Z,205
2017-09-28T07:03:37.676Z,200
2017-09-28T07:04:18.145Z,200
2017-09-28T07:04:58.628Z,200
2017-09-28T07:05:39.100Z,205
2017-09-28T07:08:17.332Z,210
2017-09-28T07:08:57.749Z,210
2017-09-28T07:09:38.206Z,210
2017-09-28T07:10:18.681Z,210
2017-09-28T07:10:59.177Z,210
2017-09-28T07:11:40.443Z,210
2017-09-28T07:12:20.910Z,215
2017-09-28T07:13:01.355Z,210
2017-09-28T07:13:41.890Z,210
2017-09-28T07:16:09.877Z,215
2017-09-28T07:16:50.306Z,220
2017-09-28T07:17:30.834Z,220
2017-09-28T07:18:11.235Z,225
2017-09-28T07:18:51.718Z,225
2017-09-28T07:19:32.206Z,225
2017-09-28T07:20:12.705Z,225
2017-09-28T07:20:53.176Z,225
2017-09-28T07:21:33.661Z,230
2017-09-28T07:22:14.141Z,235
2017-09-28T07:22:54.604Z,235
2017-09-28T07:23:35.140Z,235
2017-09-28T07:24:15.635Z,240
2017-09-28T07:24:56.158Z,240
2017-09-28T07:25:36.635Z,240
2017-09-28T07:26:17.092Z,240
2017-09-28T07:26:57.606Z,240
2017-09-28T07:27:38.211Z,240
2017-09-28T07:28:18.697Z,240
2017-09-28T07:28:59.154Z,245
2017-09-28T07:29:39.602Z,245
2017-09-28T07:30:20.060Z,245
2017-09-28T07:31:00.527Z,240
2017-09-28T07:31:40.982Z,240
2017-09-28T07:32:21.709Z,240
2017-09-28T07:33:02.266Z,235
2017-09-28T07:33:42.865Z,230
2017-09-28T07:34:23.472Z,230
2017-09-28T07:35:04.092Z,230
2017-09-28T07:35:44.684Z,230
2017-09-28T07:36:25.305Z,225
2017-09-28T07:37:05.931Z,225
2017-09-28T07:37:46.495Z,230
2017-09-28T07:38:26.954Z,230
2017-09-28T07:39:07.458Z,230
2017-09-28T07:39:47.996Z,230
2017-09-28T07:40:28.609Z,230
2017-09-28T07:41:09.065Z,230
2017-09-28T07:41:49.796Z,235
2017-09-28T07:42:30.368Z,230
2017-09-28T07:43:11.331Z,230
2017-09-28T07:43:51.914Z,225
2017-09-28T07:44:32.389Z,220
2017-09-28T07:45:12.832Z,215
2017-09-28T07:45:53.363Z,215
2017-09-28T07:46:33.994Z,210
2017-09-28T07:47:14.489Z,205
2017-09-28T07:47:54.952Z,205
2017-09-28T07:48:35.504Z,205
2017-09-28T07:49:16.044Z,205
2017-09-28T07:49:56.632Z,205
2017-09-28T07:50:37.130Z,205
2017-09-28T07:51:17.638Z,210
2017-09-28T07:51:58.130Z,210
2017-09-28T07:52:38.883Z,215
2017-09-28T07:53:19.393Z,215
2017-09-28T07:53:59.936Z,215
2017-09-28T07:54:40.473Z,225
2017-09-28T07:55:21.110Z,220
2017-09-28T07:56:01.761Z,220
2017-09-28T07:56:42.409Z,225
2017-09-28T07:57:22.804Z,225
2017-09-28T07:58:03.430Z,230
2017-09-28T07:58:44.005Z,230
2017-09-28T07:59:24.689Z,235
2017-09-28T08:00:05.176Z,240
2017-09-28T08:00:45.676Z,245
2017-09-28T08:01:26.141Z,250
2017-09-28T08:02:06.556Z,255
2017-09-28T08:02:47.062Z,260
2017-09-28T08:03:27.517Z,270
2017-09-28T08:04:08.089Z,275
2017-09-28T08:04:48.618Z,280
2017-09-28T08:05:29.122Z,310
2017-09-28T08:06:09.579Z,400
2017-09-28T08:06:50.041Z,530
2017-09-28T08:07:30.578Z,625
2017-09-28T08:08:11.108Z,630
2017-09-28T08:08:51.501Z,590
2017-09-28T08:09:32.231Z,590
2017-09-28T08:10:12.738Z,560
2017-09-28T08:10:53.299Z,580
2017-09-28T08:11:33.739Z,605
2017-09-28T08:12:14.399Z,605
2017-09-28T08:12:54.934Z,595
2017-09-28T08:13:35.546Z,615
2017-09-28T08:14:16.067Z,625
2017-09-28T08:14:56.534Z,625
2017-09-28T08:15:37.003Z,600
2017-09-28T08:16:17.452Z,540
2017-09-28T08:16:57.988Z,595
2017-09-28T08:17:38.683Z,670
2017-09-28T08:18:19.448Z,675
2017-09-28T08:18:59.982Z,665
2017-09-28T08:19:40.369Z,670
2017-09-28T08:20:20.838Z,675
2017-09-28T08:21:01.575Z,660
2017-09-28T08:21:42.246Z,635
2017-09-28T08:22:22.831Z,640
2017-09-28T08:23:03.391Z,650
2017-09-28T08:23:44.683Z,635
2017-09-28T08:24:24.530Z,635
2017-09-28T08:25:05.136Z,610
2017-09-28T08:25:45.792Z,610
2017-09-28T08:26:27.365Z,630
2017-09-28T08:27:07.959Z,645
2017-09-28T08:27:48.499Z,570
2017-09-28T08:28:28.968Z,575
2017-09-28T08:29:09.520Z,645
2017-09-28T08:29:50.008Z,645
2017-09-28T08:30:30.571Z,470
2017-09-28T08:31:11.245Z,515
2017-09-28T08:31:51.880Z,570
2017-09-28T08:32:32.451Z,505
2017-09-28T08:33:12.952Z,505
2017-09-28T08:33:53.477Z,470
2017-09-28T08:34:33.965Z,525
2017-09-28T08:35:14.628Z,555
2017-09-28T08:35:55.132Z,535
2017-09-28T08:36:35.587Z,550
2017-09-28T08:37:16.217Z,480
2017-09-28T08:37:56.639Z,510
2017-09-28T08:38:37.301Z,505
2017-09-28T08:39:17.793Z,555
2017-09-28T08:39:58.354Z,550
2017-09-28T08:40:39.019Z,555
2017-09-28T08:41:19.524Z,570
2017-09-28T08:42:00.259Z,570
2017-09-28T08:42:40.751Z,580
2017-09-28T08:43:21.331Z,545
2017-09-28T08:44:01.866Z,545
2017-09-28T08:44:42.419Z,560
2017-09-28T08:45:23.045Z,565
2017-09-28T08:46:03.504Z,595
2017-09-28T08:46:43.999Z,650
2017-09-28T08:47:24.483Z,630
2017-09-28T08:48:04.977Z,645
2017-09-28T08:48:45.440Z,620
2017-09-28T08:49:26.032Z,615
2017-09-28T08:50:06.499Z,585
2017-09-28T08:50:46.968Z,565
2017-09-28T08:51:27.516Z,530
2017-09-28T08:52:07.986Z,500
2017-09-28T08:52:48.419Z,470
2017-09-28T08:53:28.917Z,440
2017-09-28T08:54:09.371Z,405
2017-09-28T08:54:49.856Z,370
2017-09-28T08:55:30.422Z,345
2017-09-28T08:57:43.400Z,325
2017-09-28T08:58:23.987Z,320
2017-09-28T08:59:04.594Z,320
2017-09-28T08:59:45.010Z,320
2017-09-28T09:00:25.458Z,320
2017-09-28T09:01:05.948Z,315
2017-09-28T09:01:46.555Z,315
2017-09-28T09:02:26.957Z,320
2017-09-28T09:03:07.607Z,315
2017-09-28T09:03:48.599Z,315
2017-09-28T09:04:29.863Z,320
2017-09-28T09:05:10.439Z,320
2017-09-28T09:05:51.060Z,320
2017-09-28T09:06:31.712Z,320
2017-09-28T09:07:12.395Z,320
2017-09-28T09:07:52.913Z,320
2017-09-28T09:08:33.623Z,320
2017-09-28T09:09:14.197Z,320
2017-09-28T09:09:54.831Z,320
2017-09-28T09:10:35.402Z,320
2017-09-28T09:11:15.879Z,325
2017-09-28T09:11:56.324Z,325
2017-09-28T09:12:36.898Z,325
2017-09-28T09:13:17.415Z,325
2017-09-28T09:13:58.059Z,325
2017-09-28T09:14:38.527Z,325
2017-09-28T09:15:19.011Z,325
2017-09-28T09:15:59.487Z,325
2017-09-28T09:16:39.939Z,325
2017-09-28T09:17:20.561Z,320
2017-09-28T09:18:01.052Z,320
2017-09-28T09:18:41.547Z,315
2017-09-28T09:19:22.063Z,315
2017-09-28T09:20:02.658Z,315
2017-09-28T09:20:43.191Z,310
2017-09-28T09:21:23.709Z,315
2017-09-28T09:22:04.232Z,315
2017-09-28T09:22:44.687Z,320
2017-09-28T09:23:25.128Z,320
2017-09-28T09:24:05.703Z,320
2017-09-28T09:24:46.248Z,325
2017-09-28T09:25:26.877Z,325
2017-09-28T09:26:07.399Z,330
2017-09-28T09:26:48.059Z,335
2017-09-28T09:27:28.618Z,335
2017-09-28T09:28:09.105Z,345
2017-09-28T09:28:49.634Z,350
2017-09-28T09:29:30.109Z,365
2017-09-28T09:30:10.751Z,365
2017-09-28T09:30:51.424Z,385
2017-09-28T09:31:31.776Z,400
2017-09-28T09:32:12.337Z,410
2017-09-28T09:32:52.860Z,415
2017-09-28T09:33:33.322Z,425
2017-09-28T09:34:13.928Z,435
2017-09-28T09:34:54.379Z,445
2017-09-28T09:35:34.925Z,455
2017-09-28T09:36:15.336Z,460
2017-09-28T09:36:55.815Z,465
2017-09-28T09:37:36.275Z,470
2017-09-28T09:38:16.880Z,475
2017-09-28T09:38:57.320Z,490
2017-09-28T09:39:37.823Z,505
2017-09-28T09:40:18.421Z,520
2017-09-28T09:40:59.015Z,530
2017-09-28T09:41:39.464Z,530
2017-09-28T09:42:19.973Z,530
2017-09-28T09:43:00.489Z,530
2017-09-28T09:43:41.033Z,525
2017-09-28T09:44:21.996Z,530
2017-09-28T09:45:02.394Z,520
2017-09-28T09:45:42.943Z,515
2017-09-28T09:46:23.561Z,510
2017-09-28T09:47:04.025Z,510
2017-09-28T09:47:44.664Z,500
2017-09-28T09:48:25.161Z,495
2017-09-28T09:49:05.664Z,480
2017-09-28T09:49:46.097Z,475
2017-09-28T09:50:26.594Z,470
2017-09-28T09:51:07.102Z,470
2017-09-28T09:51:47.599Z,465
2017-09-28T09:52:28.269Z,455
2017-09-28T09:53:08.824Z,450
2017-09-28T09:53:49.435Z,440
2017-09-28T09:54:29.902Z,430
2017-09-28T09:55:10.480Z,430
2017-09-28T09:55:51.207Z,430
2017-09-28T09:58:20.200Z,400
2017-09-28T09:59:00.857Z,405
2017-09-28T09:59:41.579Z,400
2017-09-28T10:00:22.096Z,400
2017-09-28T10:01:02.545Z,400
2017-09-28T10:01:43.103Z,410
2017-09-28T10:02:23.620Z,410
2017-09-28T10:03:04.171Z,410
2017-09-28T10:03:44.624Z,415
2017-09-28T10:04:25.077Z,415
2017-09-28T10:05:05.593Z,420
2017-09-28T10:05:46.104Z,415
2017-09-28T10:06:26.790Z,410
2017-09-28T10:07:07.333Z,410
2017-09-28T10:07:47.836Z,410
2017-09-28T10:08:28.380Z,410
2017-09-28T10:09:08.906Z,415
2017-09-28T10:09:49.402Z,420
2017-09-28T10:10:29.910Z,425
2017-09-28T10:11:10.395Z,430
2017-09-28T10:11:50.840Z,435
2017-09-28T10:12:31.318Z,435
2017-09-28T10:13:11.869Z,445
2017-09-28T10:13:52.417Z,445
2017-09-28T10:14:32.911Z,450
2017-09-28T10:15:13.452Z,450
2017-09-28T10:15:54.061Z,445
2017-09-28T10:16:34.605Z,445
2017-09-28T10:17:16.036Z,440
2017-09-28T10:17:56.511Z,440
2017-09-28T10:18:37.707Z,435
2017-09-28T10:19:18.201Z,430
2017-09-28T10:19:58.790Z,430
2017-09-28T10:22:36.929Z,440
2017-09-28T10:23:17.581Z,445
2017-09-28T10:23:58.082Z,450
2017-09-28T10:24:38.574Z,460
2017-09-28T10:25:19.052Z,470
2017-09-28T10:25:59.575Z,490
2017-09-28T10:26:40.129Z,530
2017-09-28T10:27:20.765Z,630